Time;durP1;ratioP1;P1;durP2;ratioP2;P2;SDS_P1;SDS_P2;PMS_P1;PMS_P2;Temp;Humidity;BMP_temperature;BMP_pressure;BME280_temperature;BME280_humidity;BME280_pressure;Samples;Min_cycle;Max_cycle;Signal;HPM_P1;HPM_P2
2024/03/08 00:00:42;;;;;;;4.53;4.13;;;21.40;55.10;;;;;;5055161;28;20457;-68
2024/03/08 00:03:10;;;;;;;3.30;2.83;;;21.40;55.10;;;;;;5055042;28;20193;-68
2024/03/08 00:05:36;;;;;;;3.77;3.47;;;21.40;55.10;;;;;;5054880;28;20420;-69
2024/03/08 00:08:01;;;;;;;4.00;3.37;;;21.30;55.00;;;;;;5055140;28;20497;-68
2024/03/08 00:10:28;;;;;;;3.50;3.10;;;21.30;55.00;;;;;;5054108;28;21008;-69
2024/03/08 00:12:54;;;;;;;3.60;3.07;;;21.30;55.00;;;;;;5055250;28;20189;-68
2024/03/08 00:15:20;;;;;;;3.90;3.50;;;21.30;55.00;;;;;;5055090;28;20500;-68
2024/03/08 00:17:46;;;;;;;4.27;3.87;;;21.30;55.00;;;;;;5055079;28;20175;-69
2024/03/08 00:20:13;;;;;;;3.47;3.03;;;21.30;55.00;;;;;;5054524;28;20294;-69
2024/03/08 00:22:39;;;;;;;3.47;3.17;;;21.30;55.00;;;;;;5054931;28;20424;-69
2024/03/08 00:25:07;;;;;;;5.20;3.60;;;21.30;55.00;;;;;;5055257;28;20433;-68
2024/03/08 00:27:33;;;;;;;3.83;3.43;;;21.30;55.00;;;;;;5055321;28;20838;-68
2024/03/08 00:29:59;;;;;;;4.23;3.83;;;21.30;55.00;;;;;;5055435;28;20418;-68
2024/03/08 00:32:24;;;;;;;3.83;3.17;;;21.30;55.00;;;;;;5054752;28;20182;-69
2024/03/08 00:34:54;;;;;;;3.30;3.00;;;21.30;55.60;;;;;;5055625;28;20286;-70
2024/03/08 00:37:20;;;;;;;4.73;3.73;;;21.30;55.00;;;;;;5054131;28;20190;-68
2024/03/08 00:39:45;;;;;;;5.57;4.20;;;21.30;55.00;;;;;;5054552;28;20464;-69
2024/03/08 00:42:12;;;;;;;4.10;3.00;;;21.30;55.00;;;;;;5054260;28;20417;-70
2024/03/08 00:44:37;;;;;;;3.03;2.80;;;21.30;55.00;;;;;;5053761;28;20252;-69
2024/03/08 00:47:04;;;;;;;5.47;3.27;;;21.30;55.10;;;;;;5054261;28;20779;-69
2024/03/08 00:49:30;;;;;;;4.03;3.63;;;21.30;55.00;;;;;;5053517;28;20174;-69
2024/03/08 00:51:56;;;;;;;5.23;3.70;;;21.30;55.10;;;;;;5054109;28;20421;-69
2024/03/08 00:54:21;;;;;;;4.10;3.70;;;21.30;55.10;;;;;;5053648;28;20263;-68
2024/03/08 00:56:47;;;;;;;3.13;2.73;;;21.30;55.10;;;;;;5053757;28;20179;-69
2024/03/08 00:59:14;;;;;;;5.40;3.70;;;21.30;55.10;;;;;;5053850;28;20554;-68
2024/03/08 01:01:40;;;;;;;3.57;3.07;;;21.30;55.10;;;;;;5054063;28;20603;-68
2024/03/08 01:04:05;;;;;;;3.60;3.30;;;21.30;55.10;;;;;;5053464;28;20464;-69
2024/03/08 01:06:31;;;;;;;3.20;2.90;;;21.30;55.10;;;;;;5053717;28;20417;-69
2024/03/08 01:08:57;;;;;;;4.00;3.60;;;21.20;55.00;;;;;;5053625;28;20233;-69
2024/03/08 01:11:22;;;;;;;3.80;3.20;;;21.30;55.10;;;;;;5053512;28;20189;-69
2024/03/08 01:13:49;;;;;;;4.17;3.00;;;21.20;55.00;;;;;;5053544;28;20610;-69
2024/03/08 01:16:16;;;;;;;4.00;2.93;;;21.20;55.10;;;;;;5053768;28;20198;-67
2024/03/08 01:18:43;;;;;;;4.73;3.67;;;21.20;55.00;;;;;;5053326;28;20425;-69
2024/03/08 01:21:08;;;;;;;4.20;3.50;;;21.20;55.00;;;;;;5053453;28;20410;-69
2024/03/08 01:23:34;;;;;;;4.13;2.83;;;21.20;55.00;;;;;;5053441;28;20429;-69
2024/03/08 01:26:02;;;;;;;3.90;3.17;;;21.20;55.00;;;;;;5053026;28;20179;-69
2024/03/08 01:28:28;;;;;;;3.90;3.50;;;21.30;55.10;;;;;;5052876;28;20484;-70
2024/03/08 01:30:56;;;;;;;3.67;3.20;;;21.20;55.00;;;;;;5053344;28;20504;-70
2024/03/08 01:33:26;;;;;;;4.43;3.30;;;21.20;55.00;;;;;;5053524;28;20199;-69
2024/03/08 01:35:52;;;;;;;3.97;3.20;;;21.30;55.10;;;;;;5053283;28;20405;-68
2024/03/08 01:38:18;;;;;;;4.57;3.30;;;21.20;55.10;;;;;;5051805;28;21207;-69
2024/03/08 01:40:44;;;;;;;3.20;2.90;;;21.20;55.00;;;;;;5053129;28;20487;-68
2024/03/08 01:43:21;;;;;;;4.10;3.70;;;21.20;55.10;;;;;;5051740;28;20495;-68
2024/03/08 01:45:47;;;;;;;5.30;2.83;;;21.20;55.10;;;;;;5053184;28;20155;-68
2024/03/08 01:48:14;;;;;;;4.30;3.57;;;21.20;55.10;;;;;;5045115;28;20512;-69
2024/03/08 01:50:40;;;;;;;5.47;2.77;;;21.20;55.10;;;;;;5051618;28;20483;-69
2024/03/08 01:53:07;;;;;;;4.37;3.40;;;21.20;55.10;;;;;;5052347;28;20413;-66
2024/03/08 01:55:35;;;;;;;4.93;3.30;;;21.20;55.10;;;;;;5052533;28;20417;-68
2024/03/08 01:58:03;;;;;;;3.73;3.17;;;21.20;55.10;;;;;;5051169;28;20429;-69
2024/03/08 02:00:29;;;;;;;3.73;3.33;;;21.20;55.10;;;;;;5052821;28;20960;-69
2024/03/08 02:02:57;;;;;;;3.87;3.30;;;21.20;55.10;;;;;;5052333;28;21060;-69
2024/03/08 02:05:23;;;;;;;5.00;3.07;;;21.20;55.10;;;;;;5053281;28;20417;-68
2024/03/08 02:07:49;;;;;;;4.27;3.60;;;21.20;55.10;;;;;;5052737;28;20935;-69
2024/03/08 02:10:14;;;;;;;4.10;3.30;;;21.20;55.10;;;;;;5053427;28;20422;-69
2024/03/08 02:12:40;;;;;;;4.83;3.53;;;21.20;55.10;;;;;;5052621;28;20197;-69
2024/03/08 02:15:06;;;;;;;4.30;3.40;;;21.20;55.10;;;;;;5052715;28;20568;-68
2024/03/08 02:17:33;;;;;;;4.00;3.60;;;21.10;55.10;;;;;;5052052;28;20504;-69
2024/03/08 02:20:01;;;;;;;4.00;2.80;;;21.10;55.00;;;;;;5052287;28;20516;-68
2024/03/08 02:22:28;;;;;;;3.40;2.80;;;21.10;55.00;;;;;;5052496;28;20497;-69
2024/03/08 02:24:55;;;;;;;3.53;2.87;;;21.10;55.00;;;;;;5052262;28;20451;-69
2024/03/08 02:27:27;;;;;;;5.03;2.87;;;21.20;55.10;;;;;;5052077;28;20505;-69
2024/03/08 02:29:55;;;;;;;4.23;3.10;;;21.10;55.00;;;;;;5052946;28;20421;-69
2024/03/08 02:32:22;;;;;;;4.77;3.20;;;21.10;55.00;;;;;;5052393;28;20413;-68
2024/03/08 02:34:48;;;;;;;2.90;2.60;;;21.10;55.00;;;;;;5052934;28;20459;-69
2024/03/08 02:37:13;;;;;;;3.60;3.30;;;21.10;55.00;;;;;;5052322;28;20469;-68
2024/03/08 02:39:39;;;;;;;2.77;2.53;;;21.10;55.00;;;;;;5052356;28;20285;-68
2024/03/08 02:42:04;;;;;;;4.47;3.30;;;21.10;55.00;;;;;;5055924;28;20171;-66
2024/03/08 02:44:30;;;;;;;4.10;3.37;;;21.10;55.00;;;;;;5054608;28;20689;-68
2024/03/08 02:46:56;;;;;;;5.40;2.93;;;21.10;55.00;;;;;;5056424;28;20171;-69
2024/03/08 02:49:21;;;;;;;3.80;3.40;;;21.10;55.60;;;;;;5056399;28;20174;-68
2024/03/08 02:51:47;;;;;;;2.70;2.43;;;21.10;55.00;;;;;;5056633;28;20827;-69
2024/03/08 02:54:13;;;;;;;3.10;2.77;;;21.10;55.00;;;;;;5056241;28;20198;-69
2024/03/08 02:56:38;;;;;;;4.20;3.13;;;21.10;55.00;;;;;;5055958;28;20591;-69
2024/03/08 02:59:04;;;;;;;3.97;2.63;;;21.10;55.10;;;;;;5055840;28;20202;-69
2024/03/08 03:01:29;;;;;;;5.13;3.13;;;21.10;55.10;;;;;;5055713;28;20229;-69
2024/03/08 03:03:55;;;;;;;3.53;2.80;;;21.10;55.00;;;;;;5055980;28;20191;-70
2024/03/08 03:06:21;;;;;;;4.40;2.90;;;21.10;55.00;;;;;;5056324;28;20255;-69
2024/03/08 03:08:47;;;;;;;3.97;3.03;;;21.10;55.00;;;;;;5055887;28;20170;-69
2024/03/08 03:11:13;;;;;;;3.83;3.00;;;21.10;55.00;;;;;;5056274;28;20175;-68
2024/03/08 03:13:39;;;;;;;3.83;3.00;;;21.10;55.00;;;;;;5055625;28;20311;-69
2024/03/08 03:16:05;;;;;;;3.43;2.47;;;21.10;55.10;;;;;;5056049;28;20916;-68
2024/03/08 03:18:32;;;;;;;3.30;3.00;;;21.10;55.00;;;;;;5055677;28;20512;-69
2024/03/08 03:20:58;;;;;;;3.93;3.53;;;21.10;55.10;;;;;;5055924;28;20390;-69
2024/03/08 03:23:26;;;;;;;3.47;3.10;;;21.10;55.10;;;;;;5055815;28;20783;-69
2024/03/08 03:25:52;;;;;;;4.70;3.63;;;21.10;55.10;;;;;;5055706;28;20171;-69
2024/03/08 03:28:21;;;;;;;3.03;2.73;;;21.10;55.10;;;;;;5055842;28;20626;-70
2024/03/08 03:30:47;;;;;;;3.77;2.87;;;21.10;55.00;;;;;;5055533;28;20763;-66
2024/03/08 03:33:14;;;;;;;3.87;2.80;;;21.10;55.00;;;;;;5055503;28;20437;-69
2024/03/08 03:35:41;;;;;;;4.00;3.10;;;21.10;55.00;;;;;;5055314;28;20213;-69
2024/03/08 03:38:07;;;;;;;3.90;3.17;;;21.10;55.10;;;;;;5055181;28;20424;-69
2024/03/08 03:40:36;;;;;;;3.23;2.90;;;21.10;55.10;;;;;;5055486;28;20503;-68
2024/03/08 03:43:03;;;;;;;3.30;2.60;;;21.10;55.10;;;;;;5055315;28;20224;-68
2024/03/08 03:45:29;;;;;;;4.60;3.63;;;21.10;55.10;;;;;;5055268;28;20415;-68
2024/03/08 03:47:54;;;;;;;3.03;2.63;;;21.00;55.00;;;;;;5055424;28;20432;-69
2024/03/08 03:50:21;;;;;;;2.70;2.50;;;21.00;55.00;;;;;;5055054;28;20409;-67
2024/03/08 03:52:47;;;;;;;3.40;3.00;;;21.10;55.10;;;;;;5054885;28;20186;-69
2024/03/08 03:55:13;;;;;;;3.20;2.70;;;21.00;55.00;;;;;;5055327;28;20496;-69
2024/03/08 03:57:40;;;;;;;3.77;2.97;;;21.10;55.10;;;;;;5055180;28;20179;-69
2024/03/08 04:00:09;;;;;;;2.87;2.60;;;21.00;55.00;;;;;;5054725;28;20461;-68
2024/03/08 04:02:38;;;;;;;2.80;2.47;;;21.00;55.00;;;;;;5053647;28;20841;-68
2024/03/08 04:05:06;;;;;;;3.30;2.60;;;21.00;55.00;;;;;;5054861;28;20473;-69
2024/03/08 04:07:32;;;;;;;3.20;2.90;;;21.00;55.00;;;;;;5054819;28;20512;-67
2024/03/08 04:09:57;;;;;;;3.53;3.20;;;21.00;55.00;;;;;;5053305;28;20528;-69
2024/03/08 04:12:23;;;;;;;3.20;2.90;;;21.00;55.00;;;;;;5055011;28;20680;-69
2024/03/08 04:14:48;;;;;;;2.70;2.50;;;21.00;55.00;;;;;;5054840;28;20198;-69
2024/03/08 04:17:14;;;;;;;3.47;3.10;;;21.00;55.00;;;;;;5054760;28;20179;-68
2024/03/08 04:19:40;;;;;;;2.80;2.53;;;21.00;55.00;;;;;;5054184;28;20582;-69
2024/03/08 04:22:07;;;;;;;4.50;3.20;;;21.00;55.00;;;;;;5054305;28;20171;-68
2024/03/08 04:24:33;;;;;;;2.90;2.50;;;21.00;55.00;;;;;;5054792;28;20211;-70
2024/03/08 04:26:59;;;;;;;3.20;2.83;;;21.00;55.00;;;;;;5054746;28;20425;-69
2024/03/08 04:29:24;;;;;;;2.30;2.10;;;21.00;55.00;;;;;;5054303;28;20449;-69
2024/03/08 04:31:54;;;;;;;3.20;2.90;;;21.00;55.00;;;;;;5054291;28;20262;-69
2024/03/08 04:34:20;;;;;;;3.07;2.77;;;21.00;55.00;;;;;;5054516;28;20681;-68
2024/03/08 04:36:45;;;;;;;3.27;2.70;;;21.00;55.00;;;;;;5054346;28;20433;-68
2024/03/08 04:39:12;;;;;;;2.80;2.50;;;21.00;55.00;;;;;;5054406;28;20487;-68
2024/03/08 04:41:39;;;;;;;3.33;2.73;;;21.00;55.00;;;;;;5054019;28;20175;-69
2024/03/08 04:44:05;;;;;;;3.23;2.87;;;21.00;55.00;;;;;;5054194;28;20441;-69
2024/03/08 04:46:30;;;;;;;3.53;2.53;;;21.00;55.00;;;;;;5039165;28;20545;-70
2024/03/08 04:48:56;;;;;;;3.00;2.70;;;21.00;55.00;;;;;;5033798;28;20433;-67
2024/03/08 04:51:22;;;;;;;3.30;2.33;;;21.00;55.00;;;;;;5032284;28;20171;-69
2024/03/08 04:53:48;;;;;;;3.00;2.70;;;21.00;55.00;;;;;;5033121;28;21249;-69
2024/03/08 04:56:13;;;;;;;3.07;2.53;;;21.00;55.00;;;;;;5031715;28;20209;-69
2024/03/08 04:58:39;;;;;;;2.97;2.70;;;21.00;55.00;;;;;;5033752;28;20651;-68
2024/03/08 05:01:05;;;;;;;3.20;2.57;;;21.00;55.00;;;;;;5033838;28;20184;-68
2024/03/08 05:03:30;;;;;;;2.77;2.37;;;21.00;55.00;;;;;;5033002;28;20200;-67
2024/03/08 05:05:56;;;;;;;3.30;3.00;;;21.00;55.00;;;;;;5033965;28;20176;-68
2024/03/08 05:08:21;;;;;;;3.10;2.60;;;21.00;55.00;;;;;;5033479;28;20172;-68
2024/03/08 05:10:47;;;;;;;3.40;2.70;;;21.00;55.00;;;;;;5033555;28;20172;-69
2024/03/08 05:13:13;;;;;;;3.10;2.80;;;21.10;55.10;;;;;;5033771;28;20261;-69
2024/03/08 05:15:39;;;;;;;3.10;2.80;;;21.00;55.00;;;;;;5033660;28;20175;-68
2024/03/08 05:18:05;;;;;;;2.87;2.40;;;21.10;55.10;;;;;;5033649;28;20178;-69
2024/03/08 05:20:31;;;;;;;3.80;2.37;;;21.00;55.00;;;;;;5032930;28;20458;-69
2024/03/08 05:23:00;;;;;;;2.83;2.60;;;21.10;55.10;;;;;;5033342;28;20491;-70
2024/03/08 05:25:26;;;;;;;4.30;2.87;;;21.10;55.00;;;;;;5033286;28;20730;-69
2024/03/08 05:27:52;;;;;;;3.70;2.83;;;21.10;55.00;;;;;;5033288;28;20441;-69
2024/03/08 05:30:17;;;;;;;2.80;2.50;;;21.10;55.00;;;;;;5033316;28;20438;-67
2024/03/08 05:32:44;;;;;;;2.50;2.30;;;21.10;55.00;;;;;;5032578;28;20180;-68
2024/03/08 05:35:12;;;;;;;5.63;2.70;;;21.10;55.00;;;;;;5033275;28;20625;-67
2024/03/08 05:37:40;;;;;;;3.50;2.50;;;21.10;55.00;;;;;;5032115;28;20430;-69
2024/03/08 05:40:09;;;;;;;2.87;2.43;;;21.10;55.00;;;;;;5051042;28;20472;-68
2024/03/08 05:42:36;;;;;;;2.37;2.03;;;21.10;55.00;;;;;;5051587;28;20492;-69
2024/03/08 05:45:02;;;;;;;4.23;3.70;;;21.10;55.00;;;;;;5051388;28;20545;-66
2024/03/08 05:47:28;;;;;;;5.03;3.73;;;21.10;54.90;;;;;;5052473;28;20433;-68
2024/03/08 05:49:54;;;;;;;2.83;2.53;;;21.10;54.80;;;;;;5052256;28;20884;-69
2024/03/08 05:52:20;;;;;;;3.20;2.90;;;21.10;54.80;;;;;;5052735;28;20224;-69
2024/03/08 05:54:46;;;;;;;3.30;2.80;;;21.10;54.80;;;;;;5052968;28;20457;-69
2024/03/08 05:57:13;;;;;;;3.23;2.60;;;21.10;54.90;;;;;;5052709;28;20553;-69
2024/03/08 05:59:39;;;;;;;3.00;2.53;;;21.10;54.90;;;;;;5052203;28;20465;-70
2024/03/08 06:02:05;;;;;;;2.33;2.13;;;21.10;55.00;;;;;;5051420;28;20413;-69
2024/03/08 06:04:31;;;;;;;3.63;2.70;;;21.10;54.90;;;;;;5052361;28;20430;-68
2024/03/08 06:06:58;;;;;;;3.20;2.53;;;21.10;55.50;;;;;;5052398;28;20170;-69
2024/03/08 06:09:24;;;;;;;3.90;2.67;;;21.10;55.00;;;;;;5052311;28;20189;-69
2024/03/08 06:11:50;;;;;;;2.90;2.40;;;21.10;55.00;;;;;;5052106;28;20471;-70
2024/03/08 06:14:19;;;;;;;2.57;2.37;;;21.10;55.00;;;;;;5052854;28;20471;-68
2024/03/08 06:16:49;;;;;;;3.07;2.70;;;21.10;55.00;;;;;;5051121;28;20511;-68
2024/03/08 06:19:15;;;;;;;3.40;2.57;;;21.10;55.00;;;;;;5052589;28;20480;-68
2024/03/08 06:21:41;;;;;;;2.60;2.30;;;21.10;55.00;;;;;;5052974;28;20410;-68
2024/03/08 06:24:06;;;;;;;2.50;2.30;;;21.10;55.00;;;;;;5052983;28;20183;-67
2024/03/08 06:26:32;;;;;;;2.53;2.33;;;21.10;55.00;;;;;;5052798;28;20565;-68
2024/03/08 06:28:58;;;;;;;2.90;2.33;;;21.10;55.00;;;;;;5052412;28;20167;-69
2024/03/08 06:31:24;;;;;;;2.90;2.60;;;21.10;55.10;;;;;;5052956;28;20159;-68
2024/03/08 06:33:49;;;;;;;2.63;2.43;;;21.10;55.10;;;;;;5052804;28;20198;-68
2024/03/08 06:36:24;;;;;;;2.87;2.57;;;21.10;55.10;;;;;;5052644;28;20607;-69
2024/03/08 06:38:50;;;;;;;2.50;2.30;;;21.10;55.00;;;;;;5053407;28;20622;-68
2024/03/08 06:41:16;;;;;;;2.63;2.30;;;21.20;55.10;;;;;;5052575;28;20463;-69
2024/03/08 06:43:45;;;;;;;5.40;2.83;;;21.20;55.10;;;;;;5052777;28;20186;-67
2024/03/08 06:46:14;;;;;;;2.60;2.40;;;21.20;55.10;;;;;;5052772;28;20198;-67
2024/03/08 06:48:40;;;;;;;2.20;2.00;;;21.20;55.10;;;;;;5052799;28;20409;-68
2024/03/08 06:51:05;;;;;;;2.50;2.20;;;21.20;55.10;;;;;;5052729;28;20420;-68
2024/03/08 06:53:32;;;;;;;3.00;2.80;;;21.20;55.00;;;;;;5052834;28;20686;-69
2024/03/08 06:56:00;;;;;;;2.80;2.60;;;21.30;55.10;;;;;;5048406;28;20191;-68
2024/03/08 06:58:27;;;;;;;3.73;2.53;;;21.30;55.10;;;;;;5045663;28;20417;-67
2024/03/08 07:00:53;;;;;;;3.00;2.47;;;21.30;55.00;;;;;;5050993;28;20590;-69
2024/03/08 07:03:20;;;;;;;2.57;2.37;;;21.30;55.00;;;;;;5050642;28;20433;-70
2024/03/08 07:05:47;;;;;;;3.27;2.50;;;21.30;55.00;;;;;;5051320;28;20424;-69
2024/03/08 07:08:14;;;;;;;2.57;2.33;;;21.30;55.00;;;;;;5051644;28;20428;-69
2024/03/08 07:10:41;;;;;;;2.90;2.60;;;21.30;55.00;;;;;;5052247;28;20205;-69
2024/03/08 07:13:08;;;;;;;2.47;2.27;;;21.30;55.00;;;;;;5052520;28;20425;-66
2024/03/08 07:15:35;;;;;;;3.97;2.43;;;21.30;55.00;;;;;;5052386;28;20416;-69
2024/03/08 07:18:01;;;;;;;6.10;2.70;;;21.30;55.00;;;;;;5052244;28;20931;-69
2024/03/08 07:20:26;;;;;;;3.00;2.53;;;21.40;55.10;;;;;;5051019;28;20479;-68
2024/03/08 07:22:52;;;;;;;2.70;2.27;;;21.40;55.00;;;;;;5052021;28;20178;-68
2024/03/08 07:25:21;;;;;;;5.00;2.17;;;21.40;55.00;;;;;;5052148;28;20282;-68
2024/03/08 07:27:51;;;;;;;4.13;3.20;;;21.40;55.00;;;;;;5054255;28;20167;-68
2024/03/08 07:30:52;;;;;;;2.70;2.47;;;21.40;55.00;;;;;;5055918;28;20897;-68
2024/03/08 07:33:03;;;;;;;2.40;2.20;;;21.40;55.00;;;;;;5055271;28;20521;-69
2024/03/08 07:35:30;;;;;;;2.60;2.37;;;21.40;55.00;;;;;;5056039;28;20853;-69
2024/03/08 07:37:56;;;;;;;2.80;2.50;;;21.40;55.00;;;;;;5055596;28;20413;-68
2024/03/08 07:40:23;;;;;;;7.50;3.07;;;21.40;55.00;;;;;;5055480;28;20453;-67
2024/03/08 07:42:51;;;;;;;3.13;2.50;;;21.40;55.00;;;;;;5055966;28;20186;-70
2024/03/08 07:45:17;;;;;;;2.57;2.37;;;21.40;55.00;;;;;;5055755;28;20412;-68
2024/03/08 07:47:43;;;;;;;3.90;2.33;;;21.40;54.90;;;;;;5055205;28;20921;-68
2024/03/08 07:50:09;;;;;;;2.70;2.40;;;21.40;55.00;;;;;;5055748;28;20244;-69
2024/03/08 07:52:36;;;;;;;2.40;2.20;;;21.40;55.00;;;;;;5053915;28;20839;-69
2024/03/08 07:55:03;;;;;;;3.57;2.50;;;21.50;55.00;;;;;;5055568;28;20429;-69
2024/03/08 07:57:29;;;;;;;5.30;3.13;;;21.50;55.00;;;;;;5055441;28;21193;-69
2024/03/08 07:59:55;;;;;;;3.67;2.40;;;21.50;55.00;;;;;;5055237;28;20830;-68
2024/03/08 08:02:21;;;;;;;2.50;2.30;;;21.50;55.00;;;;;;5054869;28;20397;-67
2024/03/08 08:04:46;;;;;;;2.47;2.27;;;21.50;55.00;;;;;;5054473;28;20194;-68
2024/03/08 08:07:12;;;;;;;2.97;2.70;;;21.50;55.00;;;;;;5055145;28;20182;-70
2024/03/08 08:09:38;;;;;;;3.10;2.60;;;21.50;55.00;;;;;;5055219;28;20209;-69
2024/03/08 08:12:04;;;;;;;3.17;2.50;;;21.50;55.00;;;;;;5053312;28;20205;-70
2024/03/08 08:14:30;;;;;;;3.20;2.90;;;21.50;55.00;;;;;;5054566;28;20198;-69
2024/03/08 08:16:57;;;;;;;2.57;2.33;;;21.50;55.00;;;;;;5054666;28;20409;-69
2024/03/08 08:19:23;;;;;;;2.77;2.53;;;21.50;55.10;;;;;;5054426;28;20475;-68
2024/03/08 08:21:48;;;;;;;2.63;2.33;;;21.50;55.00;;;;;;5054719;28;20406;-69
2024/03/08 08:24:14;;;;;;;3.20;2.10;;;21.50;55.00;;;;;;5045026;28;20202;-68
2024/03/08 08:26:41;;;;;;;2.50;2.30;;;21.50;55.00;;;;;;5053604;28;20182;-68
2024/03/08 08:29:07;;;;;;;3.47;2.40;;;21.50;55.00;;;;;;5052472;28;20435;-69
2024/03/08 08:31:36;;;;;;;2.90;2.40;;;21.50;55.00;;;;;;5052602;28;20940;-67
2024/03/08 08:34:02;;;;;;;2.40;2.20;;;21.50;55.00;;;;;;5052978;28;20440;-66
2024/03/08 08:36:29;;;;;;;2.90;2.43;;;21.50;55.00;;;;;;5053597;28;20421;-68
2024/03/08 08:38:56;;;;;;;3.30;2.70;;;21.50;55.00;;;;;;5053237;28;20422;-66
2024/03/08 08:41:22;;;;;;;3.00;2.60;;;21.50;55.00;;;;;;5053567;28;20413;-67
2024/03/08 08:43:49;;;;;;;2.90;2.47;;;21.50;55.00;;;;;;5053557;28;20451;-67
2024/03/08 08:46:17;;;;;;;2.60;2.30;;;21.50;55.00;;;;;;5053254;28;20216;-68
2024/03/08 08:48:45;;;;;;;3.23;2.30;;;21.50;55.00;;;;;;5052750;28;20416;-69
2024/03/08 08:51:15;;;;;;;3.30;2.83;;;21.50;55.00;;;;;;5052884;28;20414;-68
2024/03/08 08:53:43;;;;;;;2.83;2.60;;;21.50;55.00;;;;;;5053089;28;20811;-67
2024/03/08 08:56:15;;;;;;;2.97;2.23;;;21.50;55.00;;;;;;5053211;28;20495;-68
2024/03/08 08:58:44;;;;;;;2.80;2.50;;;21.50;55.00;;;;;;5052999;28;20413;-68
2024/03/08 09:01:10;;;;;;;4.53;2.93;;;21.50;55.00;;;;;;5053061;28;20426;-68
2024/03/08 09:03:36;;;;;;;3.83;2.97;;;21.50;55.00;;;;;;5053050;28;20467;-67
2024/03/08 09:06:09;;;;;;;3.67;3.17;;;21.50;55.00;;;;;;5053079;28;20514;-66
2024/03/08 09:08:36;;;;;;;3.53;2.60;;;21.50;55.00;;;;;;5052557;28;20448;-67
2024/03/08 09:11:02;;;;;;;4.40;2.73;;;21.50;55.00;;;;;;5053728;28;20405;-67
2024/03/08 09:13:27;;;;;;;2.63;2.30;;;21.50;55.00;;;;;;5052692;28;20437;-67
2024/03/08 09:15:53;;;;;;;3.63;2.23;;;21.50;55.00;;;;;;5052623;28;20182;-68
2024/03/08 09:18:19;;;;;;;2.77;2.10;;;21.50;55.00;;;;;;5052762;28;20262;-68
2024/03/08 09:20:45;;;;;;;2.90;2.40;;;21.50;55.00;;;;;;5052807;28;20199;-67
2024/03/08 09:23:10;;;;;;;3.80;2.83;;;21.50;55.00;;;;;;5052867;28;20217;-67
2024/03/08 09:25:36;;;;;;;2.90;2.53;;;21.50;55.00;;;;;;5053134;28;20175;-67
2024/03/08 09:28:01;;;;;;;3.03;2.30;;;21.50;55.00;;;;;;5052567;28;20179;-68
2024/03/08 09:30:27;;;;;;;2.53;2.33;;;21.50;55.00;;;;;;5052661;28;20179;-67
2024/03/08 09:32:53;;;;;;;3.13;2.57;;;21.50;55.00;;;;;;5052788;28;20179;-68
2024/03/08 09:35:19;;;;;;;3.37;3.00;;;21.50;55.00;;;;;;5052268;28;20198;-69
2024/03/08 09:37:47;;;;;;;2.63;2.10;;;21.50;55.00;;;;;;5052432;28;20171;-66
2024/03/08 09:40:15;;;;;;;3.83;2.40;;;21.50;55.00;;;;;;5052925;28;20827;-67
2024/03/08 09:42:42;;;;;;;2.60;2.17;;;21.50;55.00;;;;;;5052626;28;20409;-69
2024/03/08 09:45:11;;;;;;;3.27;2.40;;;21.50;55.00;;;;;;5052436;28;21266;-67
2024/03/08 09:47:41;;;;;;;3.30;2.40;;;21.50;55.00;;;;;;5052153;28;20417;-67
2024/03/08 09:50:09;;;;;;;3.03;2.40;;;21.50;55.00;;;;;;5052385;28;20409;-67
2024/03/08 09:52:39;;;;;;;3.60;2.43;;;21.50;55.00;;;;;;5052097;28;20413;-67
2024/03/08 09:55:06;;;;;;;2.10;1.90;;;21.50;55.00;;;;;;5052098;28;20457;-67
2024/03/08 09:57:33;;;;;;;2.57;2.27;;;21.50;55.00;;;;;;5052333;28;20405;-69
2024/03/08 09:59:59;;;;;;;3.60;2.27;;;21.50;55.00;;;;;;5052104;28;20567;-67
2024/03/08 10:02:25;;;;;;;4.73;2.40;;;21.50;55.00;;;;;;5050526;28;20867;-68
2024/03/08 10:04:53;;;;;;;2.63;2.43;;;21.50;55.00;;;;;;5052190;28;20421;-67
2024/03/08 10:07:19;;;;;;;2.43;2.23;;;21.50;55.10;;;;;;5052594;28;20401;-68
2024/03/08 10:09:49;;;;;;;2.43;2.20;;;21.50;55.00;;;;;;5052297;28;20416;-66
2024/03/08 10:12:16;;;;;;;3.00;2.47;;;21.50;55.00;;;;;;5052027;28;20229;-69
2024/03/08 10:14:42;;;;;;;4.53;2.37;;;21.50;55.00;;;;;;5052337;28;20487;-68
2024/03/08 10:17:07;;;;;;;2.87;2.10;;;21.50;55.00;;;;;;5052570;28;20409;-68
2024/03/08 10:19:34;;;;;;;2.80;2.30;;;21.50;55.10;;;;;;5052557;28;20210;-67
2024/03/08 10:21:59;;;;;;;4.73;2.40;;;21.50;55.00;;;;;;5050729;28;20179;-67
2024/03/08 10:24:25;;;;;;;4.00;2.10;;;21.50;55.00;;;;;;5051709;28;20421;-67
2024/03/08 10:27:04;;;;;;;4.20;2.30;;;21.50;55.00;;;;;;5051632;28;20225;-68
2024/03/08 10:29:34;;;;;;;3.93;3.00;;;21.50;55.00;;;;;;5051558;28;20385;-66
2024/03/08 10:31:59;;;;;;;3.50;2.20;;;21.50;55.00;;;;;;5051862;28;20435;-68
2024/03/08 10:34:25;;;;;;;4.17;2.47;;;21.50;55.10;;;;;;5051610;28;20871;-67
2024/03/08 10:36:52;;;;;;;4.40;2.37;;;21.50;55.10;;;;;;5052281;28;20186;-68
2024/03/08 10:39:23;;;;;;;2.60;2.30;;;21.50;55.00;;;;;;5053276;28;20202;-69
2024/03/08 10:41:56;;;;;;;6.37;3.17;;;21.50;55.10;;;;;;5053695;28;20402;-70
2024/03/08 10:44:34;;;;;;;3.63;2.40;;;21.50;55.10;;;;;;5054019;28;20421;-69
2024/03/08 10:47:10;;;;;;;3.40;3.10;;;21.50;55.10;;;;;;5052901;28;20476;-68
2024/03/08 10:49:50;;;;;;;3.43;2.10;;;21.50;55.10;;;;;;5052770;28;20507;-67
2024/03/08 10:52:18;;;;;;;3.80;2.47;;;21.50;55.10;;;;;;5053343;28;20482;-67
2024/03/08 10:54:45;;;;;;;3.50;2.50;;;21.50;55.10;;;;;;5053534;28;20429;-70
2024/03/08 10:57:15;;;;;;;2.97;2.23;;;21.50;55.10;;;;;;5052061;28;20409;-69
2024/03/08 10:59:43;;;;;;;3.77;2.53;;;21.50;55.10;;;;;;5051897;28;20452;-68
2024/03/08 11:02:11;;;;;;;2.60;2.40;;;21.50;55.10;;;;;;5054847;28;20914;-70
2024/03/08 11:04:37;;;;;;;3.93;2.80;;;21.50;55.10;;;;;;5057162;28;20433;-69
2024/03/08 11:07:06;;;;;;;5.43;2.30;;;21.50;55.10;;;;;;5057392;28;20416;-69
2024/03/08 11:09:35;;;;;;;3.83;2.83;;;21.50;55.10;;;;;;5057076;28;20480;-68
2024/03/08 11:12:25;;;;;;;3.43;2.47;;;21.50;55.10;;;;;;5055138;28;21077;-69
2024/03/08 11:14:52;;;;;;;3.03;2.03;;;21.50;55.10;;;;;;5056698;28;20424;-68
2024/03/08 11:17:27;;;;;;;3.23;2.90;;;21.40;55.00;;;;;;5056793;28;20401;-69
2024/03/08 11:19:56;;;;;;;3.80;2.47;;;21.40;55.00;;;;;;5055448;28;20476;-69
2024/03/08 11:22:33;;;;;;;3.10;2.30;;;21.40;55.00;;;;;;5056615;28;20905;-69
2024/03/08 11:25:03;;;;;;;4.17;2.53;;;21.50;55.10;;;;;;5056744;28;21011;-68
2024/03/08 11:27:31;;;;;;;4.80;2.90;;;21.40;55.10;;;;;;5056916;28;20417;-65
2024/03/08 11:30:10;;;;;;;4.73;2.67;;;21.40;55.00;;;;;;5055515;28;21136;-69
2024/03/08 11:32:36;;;;;;;2.77;2.47;;;21.40;55.00;;;;;;5056313;28;20423;-68
2024/03/08 11:35:05;;;;;;;2.70;2.40;;;21.40;55.10;;;;;;5056296;28;20472;-69
2024/03/08 11:37:37;;;;;;;2.83;2.60;;;21.40;55.10;;;;;;5056219;28;20417;-70
2024/03/08 11:40:14;;;;;;;3.30;1.90;;;21.40;55.00;;;;;;5056950;28;20441;-67
2024/03/08 11:42:41;;;;;;;4.27;2.97;;;21.40;55.10;;;;;;5056076;28;20408;-69
2024/03/08 11:45:11;;;;;;;2.50;2.30;;;21.40;55.10;;;;;;5057471;28;20428;-68
2024/03/08 11:47:39;;;;;;;4.00;2.43;;;21.40;55.10;;;;;;5056328;28;20841;-69
2024/03/08 11:50:10;;;;;;;3.03;2.50;;;21.40;55.10;;;;;;5056274;28;20416;-69
2024/03/08 11:52:36;;;;;;;3.83;2.60;;;21.40;55.10;;;;;;5056583;28;20412;-69
2024/03/08 11:55:02;;;;;;;3.07;2.30;;;21.40;55.10;;;;;;5056160;28;20524;-68
2024/03/08 11:57:29;;;;;;;3.40;2.43;;;21.40;55.10;;;;;;5056195;28;20207;-68
2024/03/08 12:00:05;;;;;;;5.67;3.00;;;21.40;55.10;;;;;;5056158;28;20452;-69
2024/03/08 12:02:31;;;;;;;2.93;2.60;;;21.40;55.10;;;;;;5056226;28;20405;-69
2024/03/08 12:04:59;;;;;;;4.43;3.20;;;21.40;55.10;;;;;;5055931;28;20935;-69
2024/03/08 12:07:25;;;;;;;3.50;2.37;;;21.40;55.10;;;;;;5056110;28;20416;-69
2024/03/08 12:10:21;;;;;;;4.53;2.97;;;21.40;55.10;;;;;;5055644;28;20413;-68
2024/03/08 12:12:50;;;;;;;3.83;3.00;;;21.40;55.10;;;;;;5055808;28;20183;-69
2024/03/08 12:15:17;;;;;;;3.57;2.27;;;21.40;55.10;;;;;;5056935;28;20420;-69
2024/03/08 12:17:43;;;;;;;3.93;2.80;;;21.40;55.10;;;;;;5056254;28;20405;-67
2024/03/08 12:20:16;;;;;;;3.13;2.70;;;21.40;55.10;;;;;;5055099;28;20473;-69
2024/03/08 12:22:43;;;;;;;5.63;2.90;;;21.40;55.10;;;;;;5055151;28;20839;-69
2024/03/08 12:25:11;;;;;;;3.70;2.73;;;21.40;55.10;;;;;;5055882;28;20429;-69
2024/03/08 12:27:41;;;;;;;4.63;3.17;;;21.40;55.10;;;;;;5056056;28;20409;-68
2024/03/08 12:30:26;;;;;;;3.90;3.10;;;21.40;55.10;;;;;;5056094;28;20459;-68
2024/03/08 12:32:59;;;;;;;4.57;3.10;;;21.40;55.10;;;;;;5055476;28;20923;-69
2024/03/08 12:35:27;;;;;;;3.47;3.10;;;21.40;55.10;;;;;;5055480;28;20414;-69
2024/03/08 12:37:54;;;;;;;3.50;2.63;;;21.40;55.10;;;;;;5055695;28;20436;-67
2024/03/08 12:40:27;;;;;;;4.10;2.90;;;21.40;55.10;;;;;;5055626;28;20453;-70
2024/03/08 12:42:55;;;;;;;4.90;3.30;;;21.40;55.20;;;;;;5055283;28;20385;-69
2024/03/08 12:45:23;;;;;;;4.60;2.90;;;21.40;55.20;;;;;;5053464;28;20414;-68
2024/03/08 12:47:56;;;;;;;4.60;3.67;;;21.40;55.20;;;;;;5055840;28;20409;-69